sensor_id;sensor_type;location;lat;lon;timestamp;P1;durP1;ratioP1;P2;durP2;ratioP2
30127;SDS011;16942;53.196;6.592;2023-08-01T00:01:39;18.43;;;4.80;;
30127;SDS011;16942;53.196;6.592;2023-08-01T00:04:05;11.27;;;4.97;;
30127;SDS011;16942;53.196;6.592;2023-08-01T00:06:31;17.23;;;5.07;;
30127;SDS011;16942;53.196;6.592;2023-08-01T00:08:57;12.93;;;4.73;;
30127;SDS011;16942;53.196;6.592;2023-08-01T00:11:23;15.13;;;4.30;;
30127;SDS011;16942;53.196;6.592;2023-08-01T00:13:49;18.80;;;5.50;;
30127;SDS011;16942;53.196;6.592;2023-08-01T00:16:15;16.63;;;5.67;;
30127;SDS011;16942;53.196;6.592;2023-08-01T00:18:41;12.57;;;5.00;;
30127;SDS011;16942;53.196;6.592;2023-08-01T00:21:07;17.70;;;5.30;;
30127;SDS011;16942;53.196;6.592;2023-08-01T00:23:36;17.70;;;5.27;;
30127;SDS011;16942;53.196;6.592;2023-08-01T00:26:02;16.37;;;4.97;;
30127;SDS011;16942;53.196;6.592;2023-08-01T00:28:29;14.77;;;4.60;;
30127;SDS011;16942;53.196;6.592;2023-08-01T00:31:05;15.20;;;5.60;;
30127;SDS011;16942;53.196;6.592;2023-08-01T00:33:32;12.03;;;4.87;;
30127;SDS011;16942;53.196;6.592;2023-08-01T00:35:58;13.60;;;5.37;;
30127;SDS011;16942;53.196;6.592;2023-08-01T00:38:24;17.60;;;5.73;;
30127;SDS011;16942;53.196;6.592;2023-08-01T00:40:50;16.00;;;5.57;;
30127;SDS011;16942;53.196;6.592;2023-08-01T00:43:16;18.23;;;5.93;;
30127;SDS011;16942;53.196;6.592;2023-08-01T00:45:42;11.90;;;5.20;;
30127;SDS011;16942;53.196;6.592;2023-08-01T00:48:08;14.93;;;5.20;;
30127;SDS011;16942;53.196;6.592;2023-08-01T00:50:34;19.87;;;6.17;;
30127;SDS011;16942;53.196;6.592;2023-08-01T00:53:00;17.20;;;4.83;;
30127;SDS011;16942;53.196;6.592;2023-08-01T00:55:27;16.50;;;4.93;;
30127;SDS011;16942;53.196;6.592;2023-08-01T00:57:55;16.87;;;5.47;;
30127;SDS011;16942;53.196;6.592;2023-08-01T01:00:21;12.93;;;4.93;;
30127;SDS011;16942;53.196;6.592;2023-08-01T01:02:47;15.80;;;6.70;;
30127;SDS011;16942;53.196;6.592;2023-08-01T01:05:13;14.17;;;4.93;;
30127;SDS011;16942;53.196;6.592;2023-08-01T01:07:40;12.37;;;5.27;;
30127;SDS011;16942;53.196;6.592;2023-08-01T01:10:07;17.47;;;5.17;;
30127;SDS011;16942;53.196;6.592;2023-08-01T01:12:33;15.10;;;4.70;;
30127;SDS011;16942;53.196;6.592;2023-08-01T01:14:59;9.93;;;4.93;;
30127;SDS011;16942;53.196;6.592;2023-08-01T01:17:25;9.70;;;4.03;;
30127;SDS011;16942;53.196;6.592;2023-08-01T01:19:51;10.40;;;5.30;;
30127;SDS011;16942;53.196;6.592;2023-08-01T01:22:17;13.60;;;5.37;;
30127;SDS011;16942;53.196;6.592;2023-08-01T01:24:43;15.90;;;5.23;;
30127;SDS011;16942;53.196;6.592;2023-08-01T01:27:10;13.80;;;5.10;;
30127;SDS011;16942;53.196;6.592;2023-08-01T01:29:37;9.37;;;4.43;;
30127;SDS011;16942;53.196;6.592;2023-08-01T01:32:04;12.10;;;4.60;;
30127;SDS011;16942;53.196;6.592;2023-08-01T01:34:31;7.43;;;4.67;;
30127;SDS011;16942;53.196;6.592;2023-08-01T01:36:57;11.10;;;5.07;;
30127;SDS011;16942;53.196;6.592;2023-08-01T01:39:23;12.03;;;4.63;;
30127;SDS011;16942;53.196;6.592;2023-08-01T01:41:49;14.90;;;4.70;;
30127;SDS011;16942;53.196;6.592;2023-08-01T01:44:15;17.77;;;4.63;;
30127;SDS011;16942;53.196;6.592;2023-08-01T01:46:41;11.20;;;4.20;;
30127;SDS011;16942;53.196;6.592;2023-08-01T01:49:07;13.47;;;4.60;;
30127;SDS011;16942;53.196;6.592;2023-08-01T01:51:33;9.47;;;5.07;;
30127;SDS011;16942;53.196;6.592;2023-08-01T01:53:59;12.27;;;4.70;;
30127;SDS011;16942;53.196;6.592;2023-08-01T01:56:25;12.43;;;4.23;;
30127;SDS011;16942;53.196;6.592;2023-08-01T01:58:51;12.10;;;4.57;;
30127;SDS011;16942;53.196;6.592;2023-08-01T02:01:17;11.57;;;4.43;;
30127;SDS011;16942;53.196;6.592;2023-08-01T02:03:43;9.13;;;3.90;;
30127;SDS011;16942;53.196;6.592;2023-08-01T02:06:09;10.63;;;4.77;;
30127;SDS011;16942;53.196;6.592;2023-08-01T02:08:35;7.07;;;3.93;;
30127;SDS011;16942;53.196;6.592;2023-08-01T02:11:01;12.80;;;4.47;;
30127;SDS011;16942;53.196;6.592;2023-08-01T02:13:27;10.47;;;4.47;;
30127;SDS011;16942;53.196;6.592;2023-08-01T02:15:54;10.47;;;4.47;;
30127;SDS011;16942;53.196;6.592;2023-08-01T02:18:20;11.40;;;5.10;;
30127;SDS011;16942;53.196;6.592;2023-08-01T02:20:46;14.43;;;4.67;;
30127;SDS011;16942;53.196;6.592;2023-08-01T02:23:12;10.70;;;4.17;;
30127;SDS011;16942;53.196;6.592;2023-08-01T02:25:39;9.23;;;4.20;;
30127;SDS011;16942;53.196;6.592;2023-08-01T02:28:05;9.17;;;4.43;;
30127;SDS011;16942;53.196;6.592;2023-08-01T02:30:31;7.20;;;3.83;;
30127;SDS011;16942;53.196;6.592;2023-08-01T02:32:57;15.47;;;5.23;;
30127;SDS011;16942;53.196;6.592;2023-08-01T02:35:23;8.83;;;4.53;;
30127;SDS011;16942;53.196;6.592;2023-08-01T02:37:49;12.97;;;4.70;;
30127;SDS011;16942;53.196;6.592;2023-08-01T02:40:15;9.90;;;4.17;;
30127;SDS011;16942;53.196;6.592;2023-08-01T02:42:41;8.37;;;3.60;;
30127;SDS011;16942;53.196;6.592;2023-08-01T02:45:07;9.40;;;3.80;;
30127;SDS011;16942;53.196;6.592;2023-08-01T02:47:33;7.47;;;4.27;;
30127;SDS011;16942;53.196;6.592;2023-08-01T02:49:59;8.83;;;4.50;;
30127;SDS011;16942;53.196;6.592;2023-08-01T02:52:25;8.57;;;4.23;;
30127;SDS011;16942;53.196;6.592;2023-08-01T02:54:51;13.00;;;4.53;;
30127;SDS011;16942;53.196;6.592;2023-08-01T02:57:17;7.43;;;4.47;;
30127;SDS011;16942;53.196;6.592;2023-08-01T02:59:43;9.53;;;3.90;;
30127;SDS011;16942;53.196;6.592;2023-08-01T03:02:09;14.13;;;4.07;;
30127;SDS011;16942;53.196;6.592;2023-08-01T03:04:35;7.73;;;4.47;;
30127;SDS011;16942;53.196;6.592;2023-08-01T03:07:02;13.33;;;5.30;;
30127;SDS011;16942;53.196;6.592;2023-08-01T03:09:28;13.30;;;5.60;;
30127;SDS011;16942;53.196;6.592;2023-08-01T03:11:54;7.93;;;5.10;;
30127;SDS011;16942;53.196;6.592;2023-08-01T03:14:20;12.63;;;4.80;;
30127;SDS011;16942;53.196;6.592;2023-08-01T03:16:46;16.73;;;4.77;;
30127;SDS011;16942;53.196;6.592;2023-08-01T03:19:12;11.73;;;5.03;;
30127;SDS011;16942;53.196;6.592;2023-08-01T03:21:38;9.30;;;5.17;;
30127;SDS011;16942;53.196;6.592;2023-08-01T03:24:04;13.73;;;5.23;;
30127;SDS011;16942;53.196;6.592;2023-08-01T03:26:33;12.63;;;6.23;;
30127;SDS011;16942;53.196;6.592;2023-08-01T03:28:59;12.03;;;5.77;;
30127;SDS011;16942;53.196;6.592;2023-08-01T03:31:25;15.10;;;5.30;;
30127;SDS011;16942;53.196;6.592;2023-08-01T03:33:51;13.47;;;5.53;;
30127;SDS011;16942;53.196;6.592;2023-08-01T03:36:17;17.17;;;5.90;;
30127;SDS011;16942;53.196;6.592;2023-08-01T03:38:43;12.03;;;5.40;;
30127;SDS011;16942;53.196;6.592;2023-08-01T03:41:09;12.20;;;5.87;;
30127;SDS011;16942;53.196;6.592;2023-08-01T03:43:36;14.17;;;6.23;;
30127;SDS011;16942;53.196;6.592;2023-08-01T03:46:02;17.27;;;5.33;;
30127;SDS011;16942;53.196;6.592;2023-08-01T03:48:28;10.00;;;5.33;;
30127;SDS011;16942;53.196;6.592;2023-08-01T03:50:54;13.07;;;5.27;;
30127;SDS011;16942;53.196;6.592;2023-08-01T03:53:20;16.37;;;5.17;;
30127;SDS011;16942;53.196;6.592;2023-08-01T03:55:46;12.53;;;6.10;;
30127;SDS011;16942;53.196;6.592;2023-08-01T03:58:13;11.00;;;5.63;;
30127;SDS011;16942;53.196;6.592;2023-08-01T04:00:39;13.33;;;5.07;;
30127;SDS011;16942;53.196;6.592;2023-08-01T04:03:05;15.13;;;5.40;;
30127;SDS011;16942;53.196;6.592;2023-08-01T04:05:31;10.50;;;5.37;;
30127;SDS011;16942;53.196;6.592;2023-08-01T04:07:58;12.70;;;5.53;;
30127;SDS011;16942;53.196;6.592;2023-08-01T04:10:25;10.13;;;4.60;;
30127;SDS011;16942;53.196;6.592;2023-08-01T04:12:51;8.43;;;4.23;;
30127;SDS011;16942;53.196;6.592;2023-08-01T04:15:17;10.10;;;4.43;;
30127;SDS011;16942;53.196;6.592;2023-08-01T04:17:43;9.03;;;4.10;;
30127;SDS011;16942;53.196;6.592;2023-08-01T04:20:09;11.97;;;4.07;;
30127;SDS011;16942;53.196;6.592;2023-08-01T04:22:35;13.60;;;3.73;;
30127;SDS011;16942;53.196;6.592;2023-08-01T04:25:01;8.87;;;3.17;;
30127;SDS011;16942;53.196;6.592;2023-08-01T04:27:28;8.43;;;3.17;;
30127;SDS011;16942;53.196;6.592;2023-08-01T04:29:55;7.40;;;3.60;;
30127;SDS011;16942;53.196;6.592;2023-08-01T04:32:21;6.23;;;2.80;;
30127;SDS011;16942;53.196;6.592;2023-08-01T04:34:47;5.93;;;3.03;;
30127;SDS011;16942;53.196;6.592;2023-08-01T04:37:13;9.87;;;3.33;;
30127;SDS011;16942;53.196;6.592;2023-08-01T04:39:39;11.87;;;3.47;;
30127;SDS011;16942;53.196;6.592;2023-08-01T04:42:06;6.40;;;2.77;;
30127;SDS011;16942;53.196;6.592;2023-08-01T04:44:35;8.77;;;2.73;;
30127;SDS011;16942;53.196;6.592;2023-08-01T04:47:01;11.03;;;2.80;;
30127;SDS011;16942;53.196;6.592;2023-08-01T04:49:27;11.23;;;3.10;;
30127;SDS011;16942;53.196;6.592;2023-08-01T04:51:54;5.63;;;2.53;;
30127;SDS011;16942;53.196;6.592;2023-08-01T04:54:20;11.97;;;3.20;;
30127;SDS011;16942;53.196;6.592;2023-08-01T04:56:46;6.57;;;2.23;;
30127;SDS011;16942;53.196;6.592;2023-08-01T04:59:12;6.63;;;2.20;;
30127;SDS011;16942;53.196;6.592;2023-08-01T05:01:38;9.97;;;2.97;;
30127;SDS011;16942;53.196;6.592;2023-08-01T05:04:04;8.43;;;2.60;;
30127;SDS011;16942;53.196;6.592;2023-08-01T05:06:30;7.00;;;2.70;;
30127;SDS011;16942;53.196;6.592;2023-08-01T05:08:56;6.93;;;2.33;;
30127;SDS011;16942;53.196;6.592;2023-08-01T05:11:22;9.17;;;2.73;;
30127;SDS011;16942;53.196;6.592;2023-08-01T05:13:48;9.73;;;2.47;;
30127;SDS011;16942;53.196;6.592;2023-08-01T05:16:14;7.93;;;2.00;;
30127;SDS011;16942;53.196;6.592;2023-08-01T05:18:40;7.20;;;2.20;;
30127;SDS011;16942;53.196;6.592;2023-08-01T05:21:06;6.03;;;2.80;;
30127;SDS011;16942;53.196;6.592;2023-08-01T05:23:32;10.43;;;2.17;;
30127;SDS011;16942;53.196;6.592;2023-08-01T05:25:58;8.40;;;2.20;;
30127;SDS011;16942;53.196;6.592;2023-08-01T05:28:24;5.30;;;1.67;;
30127;SDS011;16942;53.196;6.592;2023-08-01T05:30:50;2.73;;;1.80;;
30127;SDS011;16942;53.196;6.592;2023-08-01T05:33:16;7.20;;;1.70;;
30127;SDS011;16942;53.196;6.592;2023-08-01T05:35:42;3.73;;;1.87;;
30127;SDS011;16942;53.196;6.592;2023-08-01T05:38:08;5.77;;;1.60;;
30127;SDS011;16942;53.196;6.592;2023-08-01T05:40:34;6.23;;;2.00;;
30127;SDS011;16942;53.196;6.592;2023-08-01T05:43:00;3.67;;;1.97;;
30127;SDS011;16942;53.196;6.592;2023-08-01T05:45:26;7.20;;;1.70;;
30127;SDS011;16942;53.196;6.592;2023-08-01T05:47:52;5.40;;;2.00;;
30127;SDS011;16942;53.196;6.592;2023-08-01T05:50:18;6.33;;;2.10;;
30127;SDS011;16942;53.196;6.592;2023-08-01T05:52:44;9.17;;;2.67;;
30127;SDS011;16942;53.196;6.592;2023-08-01T05:55:10;8.07;;;3.10;;
30127;SDS011;16942;53.196;6.592;2023-08-01T05:57:36;5.10;;;2.23;;
30127;SDS011;16942;53.196;6.592;2023-08-01T06:00:02;5.63;;;2.20;;
30127;SDS011;16942;53.196;6.592;2023-08-01T06:02:28;5.57;;;2.80;;
30127;SDS011;16942;53.196;6.592;2023-08-01T06:04:54;8.60;;;2.30;;
30127;SDS011;16942;53.196;6.592;2023-08-01T06:07:20;7.80;;;2.77;;
30127;SDS011;16942;53.196;6.592;2023-08-01T06:09:48;7.03;;;2.60;;
30127;SDS011;16942;53.196;6.592;2023-08-01T06:12:16;6.63;;;3.10;;
30127;SDS011;16942;53.196;6.592;2023-08-01T06:14:42;5.67;;;2.30;;
30127;SDS011;16942;53.196;6.592;2023-08-01T06:17:08;3.80;;;2.30;;
30127;SDS011;16942;53.196;6.592;2023-08-01T06:19:35;5.57;;;2.00;;
30127;SDS011;16942;53.196;6.592;2023-08-01T06:22:01;6.17;;;2.43;;
30127;SDS011;16942;53.196;6.592;2023-08-01T06:24:27;3.97;;;2.20;;
30127;SDS011;16942;53.196;6.592;2023-08-01T06:26:53;4.67;;;1.80;;
30127;SDS011;16942;53.196;6.592;2023-08-01T06:29:19;4.03;;;2.37;;
30127;SDS011;16942;53.196;6.592;2023-08-01T06:31:45;6.50;;;2.03;;
30127;SDS011;16942;53.196;6.592;2023-08-01T06:34:11;4.00;;;2.10;;
30127;SDS011;16942;53.196;6.592;2023-08-01T06:36:37;6.17;;;2.17;;
30127;SDS011;16942;53.196;6.592;2023-08-01T06:39:03;4.30;;;2.73;;
30127;SDS011;16942;53.196;6.592;2023-08-01T06:41:29;5.07;;;2.33;;
30127;SDS011;16942;53.196;6.592;2023-08-01T06:43:55;3.80;;;2.07;;
30127;SDS011;16942;53.196;6.592;2023-08-01T06:46:21;5.87;;;2.03;;
30127;SDS011;16942;53.196;6.592;2023-08-01T06:48:47;4.27;;;2.17;;
30127;SDS011;16942;53.196;6.592;2023-08-01T06:51:13;3.47;;;1.90;;
30127;SDS011;16942;53.196;6.592;2023-08-01T06:53:40;2.20;;;1.70;;
30127;SDS011;16942;53.196;6.592;2023-08-01T06:56:06;5.93;;;1.83;;
30127;SDS011;16942;53.196;6.592;2023-08-01T06:58:32;5.10;;;1.90;;
30127;SDS011;16942;53.196;6.592;2023-08-01T07:00:58;5.70;;;1.53;;
30127;SDS011;16942;53.196;6.592;2023-08-01T07:03:24;6.87;;;1.70;;
30127;SDS011;16942;53.196;6.592;2023-08-01T07:05:50;5.83;;;1.43;;
30127;SDS011;16942;53.196;6.592;2023-08-01T07:08:16;3.83;;;1.60;;
30127;SDS011;16942;53.196;6.592;2023-08-01T07:10:42;2.83;;;1.37;;
30127;SDS011;16942;53.196;6.592;2023-08-01T07:13:08;4.40;;;1.60;;
30127;SDS011;16942;53.196;6.592;2023-08-01T07:15:34;4.03;;;1.60;;
30127;SDS011;16942;53.196;6.592;2023-08-01T07:18:00;6.00;;;1.40;;
30127;SDS011;16942;53.196;6.592;2023-08-01T07:20:26;5.43;;;1.83;;
30127;SDS011;16942;53.196;6.592;2023-08-01T07:22:52;5.23;;;1.70;;
30127;SDS011;16942;53.196;6.592;2023-08-01T07:25:18;8.23;;;1.50;;
30127;SDS011;16942;53.196;6.592;2023-08-01T07:27:45;10.83;;;1.53;;
30127;SDS011;16942;53.196;6.592;2023-08-01T07:30:11;4.03;;;1.47;;
30127;SDS011;16942;53.196;6.592;2023-08-01T07:32:37;6.20;;;1.70;;
30127;SDS011;16942;53.196;6.592;2023-08-01T07:35:04;5.97;;;1.60;;
30127;SDS011;16942;53.196;6.592;2023-08-01T07:37:30;7.87;;;1.10;;
30127;SDS011;16942;53.196;6.592;2023-08-01T07:39:57;2.97;;;1.20;;
30127;SDS011;16942;53.196;6.592;2023-08-01T07:42:23;6.17;;;1.20;;
30127;SDS011;16942;53.196;6.592;2023-08-01T07:44:49;7.30;;;1.60;;
30127;SDS011;16942;53.196;6.592;2023-08-01T07:47:15;6.37;;;1.30;;
30127;SDS011;16942;53.196;6.592;2023-08-01T07:49:41;7.97;;;1.63;;
30127;SDS011;16942;53.196;6.592;2023-08-01T07:52:07;4.80;;;1.50;;
30127;SDS011;16942;53.196;6.592;2023-08-01T07:54:33;2.93;;;1.23;;
30127;SDS011;16942;53.196;6.592;2023-08-01T07:56:59;4.67;;;1.40;;
30127;SDS011;16942;53.196;6.592;2023-08-01T07:59:25;4.13;;;1.27;;
30127;SDS011;16942;53.196;6.592;2023-08-01T08:01:51;2.37;;;0.90;;
30127;SDS011;16942;53.196;6.592;2023-08-01T08:04:18;5.47;;;1.20;;
30127;SDS011;16942;53.196;6.592;2023-08-01T08:06:44;7.43;;;1.87;;
30127;SDS011;16942;53.196;6.592;2023-08-01T08:09:10;4.37;;;1.03;;
30127;SDS011;16942;53.196;6.592;2023-08-01T08:11:36;4.40;;;1.10;;
30127;SDS011;16942;53.196;6.592;2023-08-01T08:14:02;2.23;;;1.10;;
30127;SDS011;16942;53.196;6.592;2023-08-01T08:16:28;3.83;;;1.10;;
30127;SDS011;16942;53.196;6.592;2023-08-01T08:18:54;5.07;;;1.10;;
30127;SDS011;16942;53.196;6.592;2023-08-01T08:21:20;8.53;;;1.50;;
30127;SDS011;16942;53.196;6.592;2023-08-01T08:23:46;2.73;;;1.30;;
30127;SDS011;16942;53.196;6.592;2023-08-01T08:26:12;5.77;;;1.43;;
30127;SDS011;16942;53.196;6.592;2023-08-01T08:28:38;5.63;;;1.43;;
30127;SDS011;16942;53.196;6.592;2023-08-01T08:31:07;5.63;;;1.50;;
30127;SDS011;16942;53.196;6.592;2023-08-01T08:33:33;2.17;;;1.03;;
30127;SDS011;16942;53.196;6.592;2023-08-01T08:35:59;9.13;;;2.10;;
30127;SDS011;16942;53.196;6.592;2023-08-01T08:38:25;3.77;;;1.13;;
30127;SDS011;16942;53.196;6.592;2023-08-01T08:41:02;3.70;;;1.20;;
30127;SDS011;16942;53.196;6.592;2023-08-01T08:43:30;5.30;;;1.33;;
30127;SDS011;16942;53.196;6.592;2023-08-01T08:45:57;7.13;;;1.43;;
30127;SDS011;16942;53.196;6.592;2023-08-01T08:48:25;8.13;;;1.70;;
30127;SDS011;16942;53.196;6.592;2023-08-01T08:50:52;3.33;;;1.40;;
30127;SDS011;16942;53.196;6.592;2023-08-01T08:53:18;6.73;;;1.80;;
30127;SDS011;16942;53.196;6.592;2023-08-01T08:55:45;7.40;;;1.83;;
30127;SDS011;16942;53.196;6.592;2023-08-01T08:58:11;5.33;;;1.33;;
30127;SDS011;16942;53.196;6.592;2023-08-01T09:00:37;7.13;;;1.57;;
30127;SDS011;16942;53.196;6.592;2023-08-01T09:03:06;6.10;;;1.50;;
30127;SDS011;16942;53.196;6.592;2023-08-01T09:05:46;2.67;;;1.30;;
30127;SDS011;16942;53.196;6.592;2023-08-01T09:08:20;3.47;;;1.10;;
30127;SDS011;16942;53.196;6.592;2023-08-01T09:10:47;4.07;;;1.67;;
30127;SDS011;16942;53.196;6.592;2023-08-01T09:13:13;5.20;;;1.50;;
30127;SDS011;16942;53.196;6.592;2023-08-01T09:15:42;3.37;;;1.33;;
30127;SDS011;16942;53.196;6.592;2023-08-01T09:18:11;5.50;;;1.47;;
30127;SDS011;16942;53.196;6.592;2023-08-01T09:20:44;6.70;;;1.87;;
30127;SDS011;16942;53.196;6.592;2023-08-01T09:23:10;5.93;;;1.50;;
30127;SDS011;16942;53.196;6.592;2023-08-01T09:25:36;2.60;;;1.17;;
30127;SDS011;16942;53.196;6.592;2023-08-01T09:28:03;4.43;;;1.20;;
30127;SDS011;16942;53.196;6.592;2023-08-01T09:30:29;2.30;;;1.17;;
30127;SDS011;16942;53.196;6.592;2023-08-01T09:32:56;5.00;;;1.30;;
30127;SDS011;16942;53.196;6.592;2023-08-01T09:35:22;3.07;;;1.30;;
30127;SDS011;16942;53.196;6.592;2023-08-01T09:37:49;4.70;;;1.27;;
30127;SDS011;16942;53.196;6.592;2023-08-01T09:40:15;4.40;;;1.10;;
30127;SDS011;16942;53.196;6.592;2023-08-01T09:42:42;2.50;;;1.47;;
30127;SDS011;16942;53.196;6.592;2023-08-01T09:45:17;3.40;;;1.20;;
30127;SDS011;16942;53.196;6.592;2023-08-01T09:47:44;4.83;;;1.23;;
30127;SDS011;16942;53.196;6.592;2023-08-01T09:50:10;4.80;;;1.37;;
30127;SDS011;16942;53.196;6.592;2023-08-01T09:52:38;3.50;;;1.40;;
30127;SDS011;16942;53.196;6.592;2023-08-01T09:55:04;5.37;;;1.43;;
30127;SDS011;16942;53.196;6.592;2023-08-01T09:57:30;3.37;;;1.60;;
30127;SDS011;16942;53.196;6.592;2023-08-01T09:59:57;4.20;;;1.10;;
30127;SDS011;16942;53.196;6.592;2023-08-01T10:02:24;5.80;;;1.83;;
30127;SDS011;16942;53.196;6.592;2023-08-01T10:04:50;7.07;;;1.33;;
30127;SDS011;16942;53.196;6.592;2023-08-01T10:07:20;4.10;;;1.30;;
30127;SDS011;16942;53.196;6.592;2023-08-01T10:09:49;5.90;;;1.23;;
30127;SDS011;16942;53.196;6.592;2023-08-01T10:12:15;4.27;;;1.10;;
30127;SDS011;16942;53.196;6.592;2023-08-01T10:14:46;7.27;;;2.10;;
30127;SDS011;16942;53.196;6.592;2023-08-01T10:17:12;3.07;;;1.20;;
30127;SDS011;16942;53.196;6.592;2023-08-01T10:19:38;4.37;;;1.30;;
30127;SDS011;16942;53.196;6.592;2023-08-01T10:22:06;7.27;;;1.90;;
30127;SDS011;16942;53.196;6.592;2023-08-01T10:24:32;5.87;;;1.30;;
30127;SDS011;16942;53.196;6.592;2023-08-01T10:27:10;4.70;;;1.40;;
30127;SDS011;16942;53.196;6.592;2023-08-01T10:29:37;5.30;;;1.53;;
30127;SDS011;16942;53.196;6.592;2023-08-01T10:32:03;3.00;;;1.43;;
30127;SDS011;16942;53.196;6.592;2023-08-01T10:34:32;3.00;;;1.33;;
30127;SDS011;16942;53.196;6.592;2023-08-01T10:36:58;5.50;;;1.90;;
30127;SDS011;16942;53.196;6.592;2023-08-01T10:39:25;6.07;;;1.90;;
30127;SDS011;16942;53.196;6.592;2023-08-01T10:41:58;8.37;;;1.87;;
30127;SDS011;16942;53.196;6.592;2023-08-01T10:44:24;7.10;;;2.47;;
30127;SDS011;16942;53.196;6.592;2023-08-01T10:49:16;5.80;;;1.40;;
30127;SDS011;16942;53.196;6.592;2023-08-01T10:51:43;8.13;;;1.50;;
30127;SDS011;16942;53.196;6.592;2023-08-01T10:54:23;3.00;;;1.33;;
30127;SDS011;16942;53.196;6.592;2023-08-01T10:56:50;5.17;;;1.30;;
30127;SDS011;16942;53.196;6.592;2023-08-01T10:59:16;5.70;;;1.37;;
30127;SDS011;16942;53.196;6.592;2023-08-01T11:01:43;5.97;;;1.30;;
30127;SDS011;16942;53.196;6.592;2023-08-01T11:04:19;6.93;;;2.30;;
30127;SDS011;16942;53.196;6.592;2023-08-01T11:06:46;8.97;;;1.50;;
30127;SDS011;16942;53.196;6.592;2023-08-01T11:09:19;3.93;;;1.40;;
30127;SDS011;16942;53.196;6.592;2023-08-01T11:11:47;5.80;;;1.50;;
30127;SDS011;16942;53.196;6.592;2023-08-01T11:14:14;9.93;;;1.50;;
30127;SDS011;16942;53.196;6.592;2023-08-01T11:16:40;3.27;;;1.40;;
30127;SDS011;16942;53.196;6.592;2023-08-01T11:19:06;4.43;;;1.30;;
30127;SDS011;16942;53.196;6.592;2023-08-01T11:21:43;2.90;;;1.10;;
30127;SDS011;16942;53.196;6.592;2023-08-01T11:24:09;3.88;;;1.20;;
30127;SDS011;16942;53.196;6.592;2023-08-01T11:26:35;3.65;;;1.17;;
30127;SDS011;16942;53.196;6.592;2023-08-01T11:29:01;5.93;;;1.27;;
30127;SDS011;16942;53.196;6.592;2023-08-01T11:31:28;10.57;;;1.67;;
30127;SDS011;16942;53.196;6.592;2023-08-01T11:33:56;9.77;;;1.50;;
30127;SDS011;16942;53.196;6.592;2023-08-01T11:36:24;6.50;;;1.20;;
30127;SDS011;16942;53.196;6.592;2023-08-01T11:38:50;4.80;;;1.10;;
30127;SDS011;16942;53.196;6.592;2023-08-01T11:41:17;5.47;;;1.23;;
30127;SDS011;16942;53.196;6.592;2023-08-01T11:43:43;5.80;;;1.02;;
30127;SDS011;16942;53.196;6.592;2023-08-01T11:46:09;6.47;;;1.10;;
30127;SDS011;16942;53.196;6.592;2023-08-01T11:48:35;1.63;;;1.05;;
30127;SDS011;16942;53.196;6.592;2023-08-01T11:51:02;3.78;;;0.90;;
30127;SDS011;16942;53.196;6.592;2023-08-01T11:53:28;4.20;;;1.15;;
30127;SDS011;16942;53.196;6.592;2023-08-01T11:55:56;5.85;;;1.27;;
30127;SDS011;16942;53.196;6.592;2023-08-01T11:58:28;3.05;;;1.02;;
30127;SDS011;16942;53.196;6.592;2023-08-01T12:01:02;4.50;;;1.10;;
30127;SDS011;16942;53.196;6.592;2023-08-01T12:03:28;3.22;;;1.20;;
30127;SDS011;16942;53.196;6.592;2023-08-01T12:06:04;7.93;;;1.30;;
30127;SDS011;16942;53.196;6.592;2023-08-01T12:08:32;4.50;;;1.03;;
30127;SDS011;16942;53.196;6.592;2023-08-01T12:10:58;7.37;;;1.50;;
30127;SDS011;16942;53.196;6.592;2023-08-01T12:13:24;3.15;;;1.35;;
30127;SDS011;16942;53.196;6.592;2023-08-01T12:15:51;5.40;;;1.27;;
30127;SDS011;16942;53.196;6.592;2023-08-01T12:18:22;3.92;;;1.27;;
30127;SDS011;16942;53.196;6.592;2023-08-01T12:20:48;4.63;;;1.20;;
30127;SDS011;16942;53.196;6.592;2023-08-01T12:23:14;1.73;;;0.90;;
30127;SDS011;16942;53.196;6.592;2023-08-01T12:25:40;6.35;;;1.70;;
30127;SDS011;16942;53.196;6.592;2023-08-01T12:28:06;3.42;;;1.38;;
30127;SDS011;16942;53.196;6.592;2023-08-01T12:30:32;4.82;;;2.22;;
30127;SDS011;16942;53.196;6.592;2023-08-01T12:32:58;10.57;;;1.65;;
30127;SDS011;16942;53.196;6.592;2023-08-01T12:35:25;9.55;;;1.50;;
30127;SDS011;16942;53.196;6.592;2023-08-01T12:37:52;4.85;;;1.30;;
30127;SDS011;16942;53.196;6.592;2023-08-01T12:40:19;5.90;;;1.52;;
30127;SDS011;16942;53.196;6.592;2023-08-01T12:42:46;7.18;;;2.03;;
30127;SDS011;16942;53.196;6.592;2023-08-01T12:45:12;8.05;;;1.70;;
30127;SDS011;16942;53.196;6.592;2023-08-01T12:47:38;5.97;;;1.55;;
30127;SDS011;16942;53.196;6.592;2023-08-01T12:50:04;5.32;;;1.83;;
30127;SDS011;16942;53.196;6.592;2023-08-01T12:52:31;26.77;;;3.95;;
30127;SDS011;16942;53.196;6.592;2023-08-01T12:54:57;9.60;;;1.90;;
30127;SDS011;16942;53.196;6.592;2023-08-01T12:57:23;7.15;;;1.55;;
30127;SDS011;16942;53.196;6.592;2023-08-01T12:59:49;10.27;;;1.52;;
30127;SDS011;16942;53.196;6.592;2023-08-01T13:02:15;2.72;;;1.10;;
30127;SDS011;16942;53.196;6.592;2023-08-01T13:04:41;4.35;;;1.55;;
30127;SDS011;16942;53.196;6.592;2023-08-01T13:07:07;5.50;;;1.95;;
30127;SDS011;16942;53.196;6.592;2023-08-01T13:09:33;5.40;;;1.60;;
30127;SDS011;16942;53.196;6.592;2023-08-01T13:12:00;4.25;;;1.45;;
30127;SDS011;16942;53.196;6.592;2023-08-01T13:14:26;8.95;;;1.65;;
30127;SDS011;16942;53.196;6.592;2023-08-01T13:16:52;7.88;;;1.80;;
30127;SDS011;16942;53.196;6.592;2023-08-01T13:19:18;7.30;;;1.55;;
30127;SDS011;16942;53.196;6.592;2023-08-01T13:21:44;5.25;;;1.50;;
30127;SDS011;16942;53.196;6.592;2023-08-01T13:24:10;4.53;;;1.30;;
30127;SDS011;16942;53.196;6.592;2023-08-01T13:26:36;5.60;;;1.30;;
30127;SDS011;16942;53.196;6.592;2023-08-01T13:29:02;2.72;;;1.45;;
30127;SDS011;16942;53.196;6.592;2023-08-01T13:31:28;3.65;;;1.25;;
30127;SDS011;16942;53.196;6.592;2023-08-01T13:33:55;5.53;;;1.20;;
30127;SDS011;16942;53.196;6.592;2023-08-01T13:36:21;5.57;;;1.83;;
30127;SDS011;16942;53.196;6.592;2023-08-01T13:38:47;2.67;;;0.93;;
30127;SDS011;16942;53.196;6.592;2023-08-01T13:41:13;5.47;;;1.58;;
30127;SDS011;16942;53.196;6.592;2023-08-01T13:43:40;5.65;;;1.38;;
30127;SDS011;16942;53.196;6.592;2023-08-01T13:46:16;3.00;;;1.30;;
30127;SDS011;16942;53.196;6.592;2023-08-01T13:48:45;6.93;;;1.40;;
30127;SDS011;16942;53.196;6.592;2023-08-01T13:51:11;4.35;;;1.05;;
30127;SDS011;16942;53.196;6.592;2023-08-01T13:53:40;5.82;;;1.52;;
30127;SDS011;16942;53.196;6.592;2023-08-01T13:56:10;5.72;;;1.35;;
30127;SDS011;16942;53.196;6.592;2023-08-01T13:58:40;5.10;;;1.52;;
30127;SDS011;16942;53.196;6.592;2023-08-01T14:01:06;6.82;;;1.60;;
30127;SDS011;16942;53.196;6.592;2023-08-01T14:03:33;4.38;;;1.00;;
30127;SDS011;16942;53.196;6.592;2023-08-01T14:06:06;3.08;;;1.20;;
30127;SDS011;16942;53.196;6.592;2023-08-01T14:08:32;3.13;;;1.00;;
30127;SDS011;16942;53.196;6.592;2023-08-01T14:10:59;4.15;;;1.20;;
30127;SDS011;16942;53.196;6.592;2023-08-01T14:13:25;3.35;;;1.20;;
30127;SDS011;16942;53.196;6.592;2023-08-01T14:15:51;1.35;;;1.00;;
30127;SDS011;16942;53.196;6.592;2023-08-01T14:18:17;4.20;;;1.10;;
30127;SDS011;16942;53.196;6.592;2023-08-01T14:20:43;3.90;;;1.27;;
30127;SDS011;16942;53.196;6.592;2023-08-01T14:23:09;4.18;;;1.27;;
30127;SDS011;16942;53.196;6.592;2023-08-01T14:25:35;5.30;;;1.58;;
30127;SDS011;16942;53.196;6.592;2023-08-01T14:28:01;3.55;;;1.83;;
30127;SDS011;16942;53.196;6.592;2023-08-01T14:30:27;5.03;;;1.90;;
30127;SDS011;16942;53.196;6.592;2023-08-01T14:33:03;4.18;;;1.17;;
30127;SDS011;16942;53.196;6.592;2023-08-01T14:35:30;4.88;;;1.88;;
30127;SDS011;16942;53.196;6.592;2023-08-01T14:37:56;4.18;;;1.30;;
30127;SDS011;16942;53.196;6.592;2023-08-01T14:40:24;3.78;;;1.35;;
30127;SDS011;16942;53.196;6.592;2023-08-01T14:42:50;3.88;;;1.30;;